createdAt,value
2022-07-29T00:01:19.908Z,2.03
2022-07-29T00:06:23.300Z,2.00
2022-07-29T00:11:26.759Z,1.92
2022-07-29T00:16:31.537Z,2.35
2022-07-29T00:21:34.849Z,2.10
2022-07-29T00:26:38.022Z,1.90
2022-07-29T00:31:42.783Z,2.40
2022-07-29T00:36:46.199Z,2.13
2022-07-29T00:41:49.740Z,2.20
2022-07-29T00:46:54.374Z,2.30
2022-07-29T00:52:00.035Z,2.20
2022-07-29T00:57:03.626Z,2.35
2022-07-29T01:02:11.540Z,2.20
2022-07-29T01:07:14.897Z,2.10
2022-07-29T01:12:20.461Z,2.22
2022-07-29T01:17:28.532Z,2.38
2022-07-29T01:22:38.290Z,2.20
2022-07-29T01:27:47.220Z,2.00
2022-07-29T01:32:53.781Z,2.10
2022-07-29T01:38:00.263Z,2.60
2022-07-29T01:43:13.060Z,2.38
2022-07-29T01:48:19.223Z,2.30
2022-07-29T01:53:26.961Z,2.08
2022-07-29T01:58:37.029Z,2.20
2022-07-29T02:03:41.722Z,2.35
2022-07-29T02:08:45.985Z,2.50
2022-07-29T02:13:50.133Z,2.30
2022-07-29T02:18:55.800Z,2.83
2022-07-29T02:24:00.168Z,2.28
2022-07-29T02:29:03.599Z,2.42
2022-07-29T02:34:09.655Z,2.50
2022-07-29T02:39:17.137Z,2.58
2022-07-29T02:44:23.656Z,2.42
2022-07-29T02:49:34.607Z,2.50
2022-07-29T02:54:41.509Z,2.80
2022-07-29T02:59:44.881Z,2.78
2022-07-29T03:04:50.261Z,2.60
2022-07-29T03:09:53.620Z,2.55
2022-07-29T03:14:57.004Z,3.50
2022-07-29T03:20:02.058Z,3.30
2022-07-29T03:25:11.044Z,3.10
2022-07-29T03:35:27.711Z,3.30
2022-07-29T03:40:34.269Z,2.70
2022-07-29T03:45:37.709Z,2.92
2022-07-29T03:50:42.287Z,2.97
2022-07-29T03:55:47.293Z,3.08
2022-07-29T04:00:50.825Z,2.90
2022-07-29T04:06:03.095Z,2.90
2022-07-29T04:11:06.607Z,3.00
2022-07-29T04:16:09.806Z,2.85
2022-07-29T04:21:14.579Z,3.17
2022-07-29T04:26:18.608Z,2.63
2022-07-29T04:31:25.722Z,3.05
2022-07-29T04:36:30.600Z,3.10
2022-07-29T04:41:33.882Z,3.03
2022-07-29T04:46:38.183Z,3.30
2022-07-29T04:51:43.365Z,3.22
2022-07-29T04:56:47.448Z,3.08
2022-07-29T05:01:52.366Z,3.20
2022-07-29T05:06:57.473Z,3.65
2022-07-29T05:12:03.205Z,3.03
2022-07-29T05:17:06.486Z,3.22
2022-07-29T05:22:11.450Z,3.47
2022-07-29T05:27:15.015Z,3.40
2022-07-29T05:32:19.563Z,3.15
2022-07-29T05:37:24.937Z,3.30
2022-07-29T05:42:28.304Z,2.95
2022-07-29T05:47:31.544Z,2.78
2022-07-29T05:52:36.762Z,2.88
2022-07-29T05:57:40.103Z,3.03
2022-07-29T06:02:43.511Z,3.30
2022-07-29T06:07:50.962Z,2.90
2022-07-29T06:12:57.847Z,3.20
2022-07-29T06:18:02.395Z,3.03
2022-07-29T06:23:07.628Z,2.70
2022-07-29T06:28:10.847Z,3.10
2022-07-29T06:33:18.908Z,3.70
2022-07-29T06:38:31.161Z,3.53
2022-07-29T06:43:45.592Z,3.28
2022-07-29T06:48:54.274Z,3.33
2022-07-29T06:54:03.385Z,3.15
2022-07-29T06:59:16.617Z,3.17
2022-07-29T07:04:20.465Z,2.83
2022-07-29T07:09:25.408Z,2.70
2022-07-29T07:14:46.009Z,2.60
2022-07-29T07:19:49.279Z,2.70
2022-07-29T07:24:53.815Z,2.35
2022-07-29T07:29:56.976Z,2.42
2022-07-29T07:35:00.656Z,2.03
2022-07-29T07:40:06.049Z,2.33
2022-07-29T07:45:13.865Z,2.13
2022-07-29T07:50:19.773Z,2.67
2022-07-29T07:55:24.987Z,2.13
2022-07-29T08:00:28.293Z,2.40
2022-07-29T08:05:32.039Z,2.40
2022-07-29T08:17:42.994Z,2.42
2022-07-29T08:22:46.492Z,2.22
2022-07-29T08:27:50.265Z,2.00
2022-07-29T08:32:55.855Z,2.10
2022-07-29T08:37:59.615Z,2.38
2022-07-29T08:43:09.079Z,2.40
2022-07-29T08:48:14.062Z,2.40
2022-07-29T08:53:18.025Z,3.10
2022-07-29T08:58:23.247Z,2.60
2022-07-29T09:03:32.600Z,2.72
2022-07-29T09:09:00.075Z,2.92
2022-07-29T09:14:03.719Z,2.90
2022-07-29T09:19:09.326Z,2.88
2022-07-29T09:24:15.460Z,2.70
2022-07-29T09:29:19.474Z,3.13
2022-07-29T09:34:31.414Z,2.95
2022-07-29T09:39:35.460Z,2.80
2022-07-29T09:44:45.938Z,2.50
2022-07-29T09:49:58.981Z,2.42
2022-07-29T09:55:09.109Z,2.47
2022-07-29T10:00:14.225Z,2.47
2022-07-29T10:05:23.796Z,2.42
2022-07-29T10:10:52.422Z,2.95
2022-07-29T10:15:56.722Z,2.40
2022-07-29T10:21:02.217Z,2.58
2022-07-29T10:26:05.706Z,2.13
2022-07-29T10:31:09.217Z,1.85
2022-07-29T10:36:22.496Z,2.20
2022-07-29T10:42:05.662Z,2.20
2022-07-29T10:47:08.974Z,2.10
2022-07-29T10:52:15.459Z,1.90
2022-07-29T10:57:25.968Z,1.88
2022-07-29T11:02:49.995Z,2.00
2022-07-29T11:08:28.873Z,2.47
2022-07-29T11:13:52.608Z,2.05
2022-07-29T11:19:30.028Z,1.83
2022-07-29T11:29:43.113Z,2.20
2022-07-29T11:34:46.697Z,2.22
2022-07-29T11:40:20.203Z,2.83
2022-07-29T11:45:41.314Z,2.00
2022-07-29T11:50:48.423Z,2.35
2022-07-29T11:55:58.143Z,2.40
2022-07-29T12:01:04.132Z,2.15
2022-07-29T12:06:15.069Z,2.13
2022-07-29T12:11:21.644Z,2.20
2022-07-29T12:21:52.375Z,1.98
2022-07-29T12:27:02.690Z,2.10
2022-07-29T12:32:14.986Z,2.20
2022-07-29T12:37:35.750Z,2.10
2022-07-29T12:43:01.984Z,1.95
2022-07-29T12:48:06.451Z,1.80
2022-07-29T12:53:14.459Z,1.90
2022-07-29T12:58:33.270Z,2.10
2022-07-29T13:03:56.812Z,2.10
2022-07-29T13:09:11.529Z,2.20
2022-07-29T13:14:17.246Z,2.08
2022-07-29T13:19:20.400Z,2.10
2022-07-29T13:24:23.678Z,2.28
2022-07-29T13:29:31.503Z,2.10
2022-07-29T13:34:35.069Z,2.00
2022-07-29T13:39:38.665Z,2.03
2022-07-29T13:44:44.171Z,2.08
2022-07-29T13:49:47.708Z,2.03
2022-07-29T13:54:51.283Z,1.98
2022-07-29T13:59:56.187Z,1.70
2022-07-29T14:05:02.831Z,1.90
2022-07-29T14:10:10.273Z,1.50
2022-07-29T14:15:14.748Z,1.80
2022-07-29T14:20:18.070Z,1.65
2022-07-29T14:25:21.701Z,1.60
2022-07-29T14:30:28.273Z,1.23
2022-07-29T14:35:32.214Z,1.88
2022-07-29T14:40:37.361Z,1.88
2022-07-29T14:45:41.884Z,2.25
2022-07-29T14:50:45.062Z,1.92
2022-07-29T14:55:48.304Z,2.15
2022-07-29T15:00:53.279Z,1.70
2022-07-29T15:05:56.719Z,2.10
2022-07-29T15:11:01.599Z,2.20
2022-07-29T15:16:08.131Z,2.05
2022-07-29T15:21:11.789Z,2.17
2022-07-29T15:26:15.593Z,2.58
2022-07-29T15:31:20.960Z,2.35
2022-07-29T15:36:49.402Z,2.40
2022-07-29T15:41:48.245Z,2.47
2022-07-29T15:47:06.270Z,2.50
2022-07-29T15:52:11.008Z,2.53
2022-07-29T15:57:15.686Z,2.50
2022-07-29T16:02:20.690Z,2.30
2022-07-29T16:07:23.994Z,2.63
2022-07-29T16:12:34.775Z,3.05
2022-07-29T16:17:39.896Z,2.67
2022-07-29T16:22:43.560Z,2.88
2022-07-29T16:27:47.302Z,3.60
2022-07-29T16:32:53.580Z,3.20
2022-07-29T16:37:57.224Z,3.13
2022-07-29T16:43:00.800Z,3.65
2022-07-29T16:48:06.209Z,5.38
2022-07-29T16:53:10.456Z,5.10
2022-07-29T16:58:13.936Z,5.75
2022-07-29T17:03:18.820Z,5.30
2022-07-29T17:08:22.070Z,5.20
2022-07-29T17:13:26.277Z,5.97
2022-07-29T17:18:41.617Z,5.28
2022-07-29T17:23:45.468Z,5.40
2022-07-29T17:28:49.174Z,4.68
2022-07-29T17:33:58.346Z,4.30
2022-07-29T17:39:12.999Z,7.00
2022-07-29T17:44:16.713Z,4.03
2022-07-29T17:49:22.634Z,4.45
2022-07-29T17:54:25.900Z,4.20
2022-07-29T17:59:30.103Z,4.03
2022-07-29T18:04:35.651Z,4.22
2022-07-29T18:09:38.899Z,4.55
2022-07-29T18:14:43.057Z,4.18
2022-07-29T18:19:48.859Z,4.22
2022-07-29T18:24:54.614Z,4.60
2022-07-29T18:29:59.625Z,4.75
2022-07-29T18:35:11.087Z,4.88
2022-07-29T18:40:14.458Z,5.00
2022-07-29T18:45:19.619Z,4.80
2022-07-29T18:50:29.428Z,4.65
2022-07-29T18:55:32.934Z,4.75
2022-07-29T19:00:36.193Z,4.50
2022-07-29T19:05:40.905Z,5.00
2022-07-29T19:10:44.550Z,4.68
2022-07-29T19:15:48.797Z,5.07
2022-07-29T19:20:53.952Z,5.20
2022-07-29T19:25:57.586Z,5.07
2022-07-29T19:31:01.125Z,5.05
2022-07-29T19:36:06.152Z,5.47
2022-07-29T19:41:09.703Z,7.20
2022-07-29T19:46:13.019Z,8.20
2022-07-29T19:51:17.781Z,8.85
2022-07-29T19:56:21.165Z,8.45
2022-07-29T20:01:26.130Z,12.15
2022-07-29T20:06:36.699Z,8.18
2022-07-29T20:11:42.579Z,18.52
2022-07-29T20:16:49.440Z,8.43
2022-07-29T20:22:00.784Z,9.10
2022-07-29T20:27:05.188Z,9.57
2022-07-29T20:32:20.946Z,9.07
2022-07-29T20:37:27.466Z,9.45
2022-07-29T20:43:11.899Z,8.55
2022-07-29T20:48:15.386Z,8.60
2022-07-29T20:53:20.929Z,8.30
2022-07-29T20:58:24.847Z,8.23
2022-07-29T21:03:30.320Z,7.85
2022-07-29T21:08:35.314Z,7.60
2022-07-29T21:13:40.064Z,8.02
2022-07-29T21:18:46.306Z,8.50
2022-07-29T21:23:51.127Z,8.48
2022-07-29T21:28:54.622Z,8.05
2022-07-29T21:33:58.157Z,8.70
2022-07-29T21:39:07.219Z,7.43
2022-07-29T21:44:10.726Z,6.80
2022-07-29T21:49:14.418Z,7.22
2022-07-29T21:54:19.571Z,8.23
2022-07-29T21:59:29.018Z,7.78
2022-07-29T22:04:34.047Z,7.57
2022-07-29T22:09:39.118Z,7.20
2022-07-29T22:14:42.844Z,7.18
2022-07-29T22:19:46.439Z,7.70
2022-07-29T22:24:51.496Z,7.35
2022-07-29T22:29:54.679Z,8.48
2022-07-29T22:35:00.393Z,7.07
2022-07-29T22:40:05.929Z,7.32
2022-07-29T22:45:10.377Z,7.13
2022-07-29T22:50:13.938Z,7.88
2022-07-29T22:55:18.733Z,7.47
2022-07-29T23:00:22.595Z,6.85
2022-07-29T23:05:26.308Z,6.60
2022-07-29T23:10:31.732Z,7.40
2022-07-29T23:15:35.341Z,7.20
2022-07-29T23:20:38.833Z,6.95
2022-07-29T23:25:43.938Z,6.95
2022-07-29T23:30:47.277Z,6.80
2022-07-29T23:35:50.902Z,6.53
2022-07-29T23:40:55.731Z,6.60
2022-07-29T23:45:59.722Z,6.90
2022-07-29T23:51:08.913Z,6.40
